FYT1124 LIRF-LOWG
Flight info
| Callsign | FYT1124 |
|---|---|
| Flight time | 1h 6m |
| Altitude | 32000 |
| Route | SOSIV5AXSOVAN1E/25 SOVAN L995 AMTEL/N0448F320 DCT BIKTU DCT ROSKA DCT BARPI DCT GOLVA |
| Aircraft | A321/M-SDE1FGHIJ1RWXY/S |
Departure
| Time | 2026-05-06 16:23 |
|---|---|
| Airport | Rome–Fiumicino Leonardo da Vinci International Airport (LIRF) |
Arrival
| Time | 2026-05-06 17:29 |
|---|---|
| Airport | Graz Airport (LOWG) |
| Time | Latitude | Longitude | Altitude | Speed | Heading |
|---|---|---|---|---|---|
| 2026-05-06 15:48 | 41.80069 | 12.26214 | 16 ft | 0 kts | 205° |
| 2026-05-06 15:54 | 41.80090 | 12.26152 | 16 ft | 0 kts | 205° |
| 2026-05-06 16:14 | 41.80092 | 12.26154 | 16 ft | 2 kts | 205° |
| 2026-05-06 16:14 | 41.80106 | 12.26162 | 16 ft | 2 kts | 203° |
| 2026-05-06 16:14 | 41.80120 | 12.26170 | 16 ft | 2 kts | 204° |
| 2026-05-06 16:15 | 41.80134 | 12.26178 | 16 ft | 2 kts | 204° |
| 2026-05-06 16:15 | 41.80145 | 12.26190 | 16 ft | 2 kts | 251° |
| 2026-05-06 16:15 | 41.80145 | 12.26204 | 16 ft | 1 kts | 297° |
| 2026-05-06 16:15 | 41.80141 | 12.26213 | 16 ft | 1 kts | 296° |
| 2026-05-06 16:16 | 41.80140 | 12.26215 | 16 ft | 0 kts | 295° |
| 2026-05-06 16:17 | 41.80141 | 12.26211 | 16 ft | 2 kts | 295° |
| 2026-05-06 16:17 | 41.80157 | 12.26166 | 16 ft | 8 kts | 295° |
| 2026-05-06 16:18 | 41.80187 | 12.26084 | 16 ft | 10 kts | 297° |
| 2026-05-06 16:18 | 41.80250 | 12.26061 | 16 ft | 10 kts | 12° |
| 2026-05-06 16:18 | 41.80322 | 12.26100 | 16 ft | 11 kts | 24° |
| 2026-05-06 16:18 | 41.80397 | 12.26145 | 16 ft | 12 kts | 24° |
| 2026-05-06 16:19 | 41.80479 | 12.26185 | 16 ft | 12 kts | 24° |
| 2026-05-06 16:19 | 41.80536 | 12.26275 | 16 ft | 13 kts | 67° |
| 2026-05-06 16:19 | 41.80570 | 12.26393 | 15 ft | 14 kts | 70° |
| 2026-05-06 16:19 | 41.80604 | 12.26518 | 15 ft | 14 kts | 70° |
| 2026-05-06 16:20 | 41.80640 | 12.26649 | 15 ft | 15 kts | 70° |
| 2026-05-06 16:20 | 41.80677 | 12.26785 | 14 ft | 15 kts | 68° |
| 2026-05-06 16:20 | 41.80717 | 12.26924 | 14 ft | 16 kts | 69° |
| 2026-05-06 16:20 | 41.80783 | 12.27036 | 13 ft | 16 kts | 12° |
| 2026-05-06 16:21 | 41.80861 | 12.27014 | 13 ft | 7 kts | 340° |
| 2026-05-06 16:21 | 41.80866 | 12.27012 | 13 ft | 0 kts | 340° |
| 2026-05-06 16:21 | 41.80866 | 12.27011 | 13 ft | 0 kts | 340° |
| 2026-05-06 16:21 | 41.80875 | 12.27007 | 13 ft | 5 kts | 340° |
| 2026-05-06 16:22 | 41.80949 | 12.26964 | 13 ft | 16 kts | 312° |
| 2026-05-06 16:22 | 41.80899 | 12.26719 | 14 ft | 54 kts | 249° |
| 2026-05-06 16:22 | 41.80683 | 12.25936 | 16 ft | 122 kts | 248° |
| 2026-05-06 16:22 | 41.80314 | 12.24614 | 17 ft | 177 kts | 250° |
| 2026-05-06 16:23 | 41.79998 | 12.22988 | 551 ft | 182 kts | 252° |
| 2026-05-06 16:23 | 41.79618 | 12.21402 | 1262 ft | 179 kts | 244° |
| 2026-05-06 16:23 | 41.79145 | 12.19893 | 2020 ft | 176 kts | 251° |
| 2026-05-06 16:23 | 41.79274 | 12.18286 | 2536 ft | 188 kts | 295° |
| 2026-05-06 16:24 | 41.80089 | 12.16902 | 3101 ft | 191 kts | 309° |
| 2026-05-06 16:24 | 41.81022 | 12.15586 | 3519 ft | 202 kts | 309° |
| 2026-05-06 16:24 | 41.81994 | 12.14140 | 3867 ft | 216 kts | 308° |
| 2026-05-06 16:24 | 41.82974 | 12.12588 | 4392 ft | 221 kts | 306° |
| 2026-05-06 16:25 | 41.83978 | 12.11008 | 4994 ft | 224 kts | 313° |
| 2026-05-06 16:25 | 41.85305 | 12.09927 | 5500 ft | 233 kts | 338° |
| 2026-05-06 16:25 | 41.86927 | 12.09286 | 5799 ft | 252 kts | 343° |
| 2026-05-06 16:25 | 41.88673 | 12.08686 | 6083 ft | 271 kts | 344° |
| 2026-05-06 16:26 | 41.90575 | 12.08029 | 6490 ft | 286 kts | 343° |
| 2026-05-06 16:26 | 41.92488 | 12.07345 | 7140 ft | 291 kts | 343° |
| 2026-05-06 16:26 | 41.94452 | 12.06641 | 7856 ft | 293 kts | 345° |
| 2026-05-06 16:26 | 41.96461 | 12.06125 | 8557 ft | 296 kts | 351° |
| 2026-05-06 16:27 | 41.98521 | 12.05851 | 9246 ft | 299 kts | 354° |
| 2026-05-06 16:27 | 42.00596 | 12.05650 | 9908 ft | 302 kts | 354° |
| 2026-05-06 16:27 | 42.02716 | 12.05454 | 10464 ft | 309 kts | 354° |
| 2026-05-06 16:27 | 42.04905 | 12.05247 | 10776 ft | 325 kts | 354° |
| 2026-05-06 16:28 | 42.07214 | 12.05024 | 11073 ft | 340 kts | 354° |
| 2026-05-06 16:28 | 42.09634 | 12.04789 | 11424 ft | 352 kts | 354° |
| 2026-05-06 16:28 | 42.12098 | 12.04552 | 11980 ft | 357 kts | 354° |
| 2026-05-06 16:28 | 42.14554 | 12.04313 | 12570 ft | 359 kts | 354° |
| 2026-05-06 16:29 | 42.17067 | 12.04065 | 13153 ft | 361 kts | 353° |
| 2026-05-06 16:29 | 42.19587 | 12.03665 | 13741 ft | 363 kts | 349° |
| 2026-05-06 16:29 | 42.22073 | 12.03132 | 14303 ft | 365 kts | 348° |
| 2026-05-06 16:29 | 42.24579 | 12.02565 | 14827 ft | 369 kts | 348° |
| 2026-05-06 16:30 | 42.27135 | 12.01978 | 15360 ft | 372 kts | 347° |
| 2026-05-06 16:30 | 42.28840 | 12.01588 | 15700 ft | 374 kts | 347° |
| 2026-05-06 16:30 | 42.32258 | 12.00811 | 16375 ft | 377 kts | 348° |
| 2026-05-06 16:30 | 42.34868 | 12.00222 | 16887 ft | 380 kts | 348° |
| 2026-05-06 16:31 | 42.37496 | 11.99632 | 17361 ft | 383 kts | 347° |
| 2026-05-06 16:31 | 42.40176 | 11.99028 | 17850 ft | 386 kts | 347° |
| 2026-05-06 16:31 | 42.42828 | 11.98433 | 18315 ft | 389 kts | 347° |
| 2026-05-06 16:31 | 42.45548 | 11.97821 | 18761 ft | 392 kts | 347° |
| 2026-05-06 16:32 | 42.48303 | 11.97200 | 19218 ft | 395 kts | 347° |
| 2026-05-06 16:32 | 42.51015 | 11.96588 | 19644 ft | 399 kts | 346° |
| 2026-05-06 16:32 | 42.53751 | 11.95969 | 20067 ft | 402 kts | 346° |
| 2026-05-06 16:32 | 42.56522 | 11.95341 | 20486 ft | 405 kts | 346° |
| 2026-05-06 16:33 | 42.59300 | 11.94711 | 20894 ft | 408 kts | 346° |
| 2026-05-06 16:33 | 42.62132 | 11.94068 | 21316 ft | 411 kts | 346° |
| 2026-05-06 16:33 | 42.64947 | 11.93428 | 21738 ft | 413 kts | 346° |
| 2026-05-06 16:34 | 42.70656 | 11.92127 | 22501 ft | 420 kts | 345° |
| 2026-05-06 16:34 | 42.73575 | 11.91460 | 22880 ft | 423 kts | 345° |
| 2026-05-06 16:34 | 42.76469 | 11.90799 | 23253 ft | 426 kts | 345° |
| 2026-05-06 16:34 | 42.79378 | 11.90134 | 23624 ft | 429 kts | 345° |
| 2026-05-06 16:35 | 42.82307 | 11.89249 | 23915 ft | 427 kts | 338° |
| 2026-05-06 16:35 | 42.85065 | 11.87950 | 23929 ft | 421 kts | 331° |
| 2026-05-06 16:35 | 42.87705 | 11.86228 | 23938 ft | 416 kts | 326° |
| 2026-05-06 16:35 | 42.90264 | 11.84361 | 23936 ft | 415 kts | 324° |
| 2026-05-06 16:36 | 42.92788 | 11.82480 | 23937 ft | 416 kts | 324° |
| 2026-05-06 16:36 | 42.95328 | 11.80589 | 23934 ft | 416 kts | 324° |
| 2026-05-06 16:36 | 42.97867 | 11.78711 | 23943 ft | 416 kts | 325° |
| 2026-05-06 16:36 | 43.00397 | 11.76845 | 23943 ft | 416 kts | 325° |
| 2026-05-06 16:37 | 43.02965 | 11.74957 | 23946 ft | 416 kts | 325° |
| 2026-05-06 16:37 | 43.05503 | 11.73089 | 23948 ft | 415 kts | 325° |
| 2026-05-06 16:37 | 43.08035 | 11.71228 | 23946 ft | 415 kts | 325° |
| 2026-05-06 16:37 | 43.10573 | 11.69357 | 23942 ft | 415 kts | 325° |
| 2026-05-06 16:38 | 43.13132 | 11.67468 | 23938 ft | 415 kts | 325° |
| 2026-05-06 16:38 | 43.15653 | 11.65609 | 23938 ft | 416 kts | 325° |
| 2026-05-06 16:38 | 43.18219 | 11.63715 | 23940 ft | 416 kts | 325° |
| 2026-05-06 16:38 | 43.20875 | 11.62027 | 23931 ft | 423 kts | 333° |
| 2026-05-06 16:39 | 43.23722 | 11.60905 | 23931 ft | 431 kts | 343° |
| 2026-05-06 16:39 | 43.26696 | 11.60370 | 23945 ft | 437 kts | 350° |
| 2026-05-06 16:39 | 43.29739 | 11.60093 | 23937 ft | 438 kts | 352° |
| 2026-05-06 16:39 | 43.32787 | 11.59866 | 23929 ft | 437 kts | 352° |
| 2026-05-06 16:40 | 43.35815 | 11.59638 | 23929 ft | 436 kts | 352° |
| 2026-05-06 16:40 | 43.38857 | 11.59397 | 23923 ft | 436 kts | 352° |
| 2026-05-06 16:40 | 43.41877 | 11.59145 | 23919 ft | 436 kts | 351° |
| 2026-05-06 16:40 | 43.44875 | 11.58889 | 23918 ft | 436 kts | 351° |
| 2026-05-06 16:41 | 43.47918 | 11.58622 | 23923 ft | 436 kts | 351° |
| 2026-05-06 16:41 | 43.50915 | 11.58359 | 23923 ft | 435 kts | 351° |
| 2026-05-06 16:41 | 43.53968 | 11.58089 | 23924 ft | 437 kts | 351° |
| 2026-05-06 16:41 | 43.56999 | 11.57818 | 24181 ft | 441 kts | 351° |
| 2026-05-06 16:42 | 43.60072 | 11.57545 | 24682 ft | 440 kts | 351° |
| 2026-05-06 16:42 | 43.63105 | 11.57275 | 25099 ft | 441 kts | 351° |
| 2026-05-06 16:42 | 43.66166 | 11.57003 | 25462 ft | 443 kts | 351° |
| 2026-05-06 16:42 | 43.69251 | 11.56728 | 25811 ft | 445 kts | 351° |
| 2026-05-06 16:43 | 43.72356 | 11.56449 | 26128 ft | 448 kts | 351° |
| 2026-05-06 16:43 | 43.75468 | 11.56171 | 26482 ft | 449 kts | 351° |
| 2026-05-06 16:43 | 43.78583 | 11.55893 | 26814 ft | 451 kts | 351° |
| 2026-05-06 16:43 | 43.81740 | 11.55609 | 27133 ft | 453 kts | 351° |
| 2026-05-06 16:44 | 43.84936 | 11.55323 | 27461 ft | 455 kts | 351° |
| 2026-05-06 16:44 | 43.88142 | 11.55034 | 27763 ft | 458 kts | 351° |
| 2026-05-06 16:44 | 43.91368 | 11.54742 | 28061 ft | 460 kts | 351° |
| 2026-05-06 16:44 | 43.94569 | 11.54458 | 28378 ft | 461 kts | 351° |
| 2026-05-06 16:45 | 43.97802 | 11.54505 | 28650 ft | 471 kts | 2° |
| 2026-05-06 16:45 | 44.01035 | 11.55528 | 28964 ft | 479 kts | 15° |
| 2026-05-06 16:45 | 44.04047 | 11.57501 | 29355 ft | 484 kts | 29° |
| 2026-05-06 16:45 | 44.06819 | 11.60106 | 29800 ft | 483 kts | 33° |
| 2026-05-06 16:46 | 44.09540 | 11.62847 | 30184 ft | 482 kts | 34° |
| 2026-05-06 16:46 | 44.12243 | 11.65600 | 30475 ft | 483 kts | 34° |
| 2026-05-06 16:46 | 44.14983 | 11.68368 | 30716 ft | 485 kts | 34° |
| 2026-05-06 16:46 | 44.17695 | 11.71085 | 30974 ft | 486 kts | 34° |
| 2026-05-06 16:47 | 44.20445 | 11.73822 | 31216 ft | 488 kts | 33° |
| 2026-05-06 16:47 | 44.23217 | 11.76566 | 31486 ft | 488 kts | 34° |
| 2026-05-06 16:47 | 44.25972 | 11.79297 | 31753 ft | 489 kts | 34° |
| 2026-05-06 16:47 | 44.28738 | 11.82054 | 31869 ft | 491 kts | 34° |
| 2026-05-06 16:48 | 44.31530 | 11.84828 | 31873 ft | 492 kts | 33° |
| 2026-05-06 16:48 | 44.37104 | 11.90374 | 31878 ft | 492 kts | 33° |
| 2026-05-06 16:49 | 44.42646 | 11.95891 | 31878 ft | 493 kts | 33° |
| 2026-05-06 16:49 | 44.48237 | 12.01470 | 31879 ft | 493 kts | 33° |
| 2026-05-06 16:50 | 44.53788 | 12.07034 | 31868 ft | 493 kts | 33° |
| 2026-05-06 16:50 | 44.59378 | 12.12645 | 31856 ft | 494 kts | 33° |
| 2026-05-06 16:51 | 44.64955 | 12.18253 | 31850 ft | 495 kts | 33° |
| 2026-05-06 16:51 | 44.70505 | 12.23850 | 31850 ft | 495 kts | 33° |
| 2026-05-06 16:52 | 44.76067 | 12.29476 | 31847 ft | 494 kts | 33° |
| 2026-05-06 16:52 | 44.81642 | 12.35125 | 31852 ft | 494 kts | 33° |
| 2026-05-06 16:53 | 44.87170 | 12.40745 | 31855 ft | 493 kts | 33° |
| 2026-05-06 16:53 | 44.92757 | 12.46432 | 31854 ft | 494 kts | 33° |
| 2026-05-06 16:54 | 44.98271 | 12.52063 | 31854 ft | 493 kts | 33° |
| 2026-05-06 16:54 | 45.03816 | 12.57739 | 31855 ft | 493 kts | 33° |
| 2026-05-06 16:55 | 45.09378 | 12.63443 | 31861 ft | 493 kts | 33° |
| 2026-05-06 16:55 | 45.14936 | 12.69154 | 31862 ft | 493 kts | 34° |
| 2026-05-06 16:56 | 45.20448 | 12.74838 | 31863 ft | 493 kts | 34° |
| 2026-05-06 16:56 | 45.25954 | 12.80662 | 31863 ft | 495 kts | 38° |
| 2026-05-06 16:57 | 45.30924 | 12.87355 | 31863 ft | 496 kts | 47° |
| 2026-05-06 16:57 | 45.35139 | 12.95112 | 31865 ft | 496 kts | 57° |
| 2026-05-06 16:58 | 45.38647 | 13.03475 | 31866 ft | 495 kts | 61° |
| 2026-05-06 16:58 | 45.42072 | 13.11925 | 31869 ft | 494 kts | 61° |
| 2026-05-06 16:59 | 45.45533 | 13.20391 | 31868 ft | 494 kts | 60° |
| 2026-05-06 16:59 | 45.48996 | 13.28830 | 31871 ft | 493 kts | 60° |
| 2026-05-06 17:00 | 45.52433 | 13.37227 | 31872 ft | 493 kts | 60° |
| 2026-05-06 17:00 | 45.55866 | 13.45637 | 31872 ft | 493 kts | 60° |
| 2026-05-06 17:01 | 45.59478 | 13.53892 | 31877 ft | 492 kts | 54° |
| 2026-05-06 17:01 | 45.63616 | 13.61651 | 31878 ft | 490 kts | 51° |
| 2026-05-06 17:02 | 45.67813 | 13.69277 | 31876 ft | 489 kts | 52° |
| 2026-05-06 17:02 | 45.71978 | 13.76905 | 31885 ft | 489 kts | 52° |
| 2026-05-06 17:03 | 45.76133 | 13.84556 | 31889 ft | 487 kts | 52° |
| 2026-05-06 17:03 | 45.80268 | 13.92205 | 31901 ft | 486 kts | 52° |
| 2026-05-06 17:04 | 45.84373 | 13.99815 | 31906 ft | 484 kts | 52° |
| 2026-05-06 17:04 | 45.88479 | 14.07454 | 31908 ft | 484 kts | 52° |
| 2026-05-06 17:05 | 45.92575 | 14.15092 | 31908 ft | 484 kts | 52° |
| 2026-05-06 17:05 | 45.96649 | 14.22708 | 31907 ft | 483 kts | 52° |
| 2026-05-06 17:06 | 46.00721 | 14.30345 | 31908 ft | 482 kts | 52° |
| 2026-05-06 17:06 | 46.04797 | 14.38005 | 31905 ft | 482 kts | 52° |
| 2026-05-06 17:06 | 46.06817 | 14.41811 | 31662 ft | 481 kts | 52° |
| 2026-05-06 17:07 | 46.08837 | 14.45626 | 31389 ft | 477 kts | 52° |
| 2026-05-06 17:07 | 46.10857 | 14.49443 | 31114 ft | 474 kts | 52° |
| 2026-05-06 17:07 | 46.12833 | 14.53177 | 30844 ft | 471 kts | 52° |
| 2026-05-06 17:07 | 46.14806 | 14.56912 | 30568 ft | 470 kts | 52° |
| 2026-05-06 17:08 | 46.16782 | 14.60664 | 30293 ft | 470 kts | 52° |
| 2026-05-06 17:08 | 46.18767 | 14.64436 | 30024 ft | 471 kts | 52° |
| 2026-05-06 17:08 | 46.20758 | 14.68220 | 29752 ft | 471 kts | 53° |
| 2026-05-06 17:08 | 46.22732 | 14.71971 | 29485 ft | 471 kts | 53° |
| 2026-05-06 17:09 | 46.24697 | 14.75717 | 29223 ft | 472 kts | 53° |
| 2026-05-06 17:09 | 46.26678 | 14.79500 | 28956 ft | 473 kts | 53° |
| 2026-05-06 17:09 | 46.28645 | 14.83265 | 28691 ft | 473 kts | 53° |
| 2026-05-06 17:09 | 46.30636 | 14.87079 | 28424 ft | 473 kts | 53° |
| 2026-05-06 17:10 | 46.32587 | 14.90815 | 28087 ft | 472 kts | 53° |
| 2026-05-06 17:10 | 46.34546 | 14.94576 | 27679 ft | 467 kts | 53° |
| 2026-05-06 17:10 | 46.36486 | 14.98307 | 27314 ft | 465 kts | 53° |
| 2026-05-06 17:10 | 46.38421 | 15.02029 | 26873 ft | 462 kts | 53° |
| 2026-05-06 17:11 | 46.40337 | 15.05719 | 26407 ft | 458 kts | 53° |
| 2026-05-06 17:11 | 46.42256 | 15.09422 | 25936 ft | 454 kts | 53° |
| 2026-05-06 17:11 | 46.44120 | 15.13024 | 25463 ft | 451 kts | 54° |
| 2026-05-06 17:11 | 46.45988 | 15.16639 | 24985 ft | 447 kts | 53° |
| 2026-05-06 17:12 | 46.47840 | 15.20228 | 24511 ft | 443 kts | 54° |
| 2026-05-06 17:12 | 46.49664 | 15.23765 | 24049 ft | 439 kts | 54° |
| 2026-05-06 17:12 | 46.51483 | 15.27299 | 23588 ft | 435 kts | 54° |
| 2026-05-06 17:12 | 46.53283 | 15.30801 | 23119 ft | 432 kts | 54° |
| 2026-05-06 17:13 | 46.55064 | 15.34271 | 22651 ft | 428 kts | 54° |
| 2026-05-06 17:13 | 46.56836 | 15.37726 | 22185 ft | 425 kts | 54° |
| 2026-05-06 17:13 | 46.58579 | 15.41129 | 21711 ft | 421 kts | 54° |
| 2026-05-06 17:13 | 46.60305 | 15.44504 | 21254 ft | 418 kts | 54° |
| 2026-05-06 17:14 | 46.62037 | 15.47895 | 20788 ft | 415 kts | 54° |
| 2026-05-06 17:14 | 46.63738 | 15.51228 | 20314 ft | 412 kts | 54° |
| 2026-05-06 17:14 | 46.65438 | 15.54564 | 19851 ft | 409 kts | 54° |
| 2026-05-06 17:14 | 46.67119 | 15.57865 | 19389 ft | 406 kts | 54° |
| 2026-05-06 17:15 | 46.68911 | 15.61051 | 18877 ft | 405 kts | 42° |
| 2026-05-06 17:15 | 46.71275 | 15.63163 | 18395 ft | 398 kts | 17° |
| 2026-05-06 17:15 | 46.73960 | 15.63737 | 17921 ft | 388 kts | 353° |
| 2026-05-06 17:15 | 46.76524 | 15.62929 | 17481 ft | 378 kts | 337° |
| 2026-05-06 17:16 | 46.78997 | 15.61685 | 17030 ft | 377 kts | 338° |
| 2026-05-06 17:16 | 46.81538 | 15.60681 | 16567 ft | 378 kts | 343° |
| 2026-05-06 17:16 | 46.84137 | 15.59963 | 16106 ft | 378 kts | 346° |
| 2026-05-06 17:16 | 46.86722 | 15.59375 | 15637 ft | 377 kts | 347° |
| 2026-05-06 17:17 | 46.89308 | 15.58826 | 15173 ft | 376 kts | 347° |
| 2026-05-06 17:17 | 46.91875 | 15.58292 | 14714 ft | 375 kts | 347° |
| 2026-05-06 17:17 | 46.94460 | 15.57731 | 14249 ft | 373 kts | 346° |
| 2026-05-06 17:17 | 46.96998 | 15.57067 | 13786 ft | 372 kts | 345° |
| 2026-05-06 17:18 | 46.99549 | 15.56360 | 13314 ft | 370 kts | 344° |
| 2026-05-06 17:18 | 47.02074 | 15.55654 | 12862 ft | 369 kts | 344° |
| 2026-05-06 17:18 | 47.04574 | 15.54960 | 12415 ft | 367 kts | 344° |
| 2026-05-06 17:18 | 47.07066 | 15.54270 | 11958 ft | 365 kts | 344° |
| 2026-05-06 17:19 | 47.09549 | 15.53584 | 11510 ft | 363 kts | 344° |
| 2026-05-06 17:19 | 47.12016 | 15.52902 | 11077 ft | 360 kts | 344° |
| 2026-05-06 17:19 | 47.14484 | 15.52221 | 10640 ft | 357 kts | 344° |
| 2026-05-06 17:19 | 47.16897 | 15.51555 | 10408 ft | 346 kts | 344° |
| 2026-05-06 17:20 | 47.19229 | 15.50912 | 10275 ft | 333 kts | 343° |
| 2026-05-06 17:20 | 47.21444 | 15.50301 | 10132 ft | 321 kts | 343° |
| 2026-05-06 17:20 | 47.23614 | 15.49696 | 9917 ft | 312 kts | 343° |
| 2026-05-06 17:20 | 47.25714 | 15.49109 | 9574 ft | 309 kts | 343° |
| 2026-05-06 17:21 | 47.27817 | 15.48521 | 9316 ft | 301 kts | 343° |
| 2026-05-06 17:21 | 47.29837 | 15.47952 | 9187 ft | 289 kts | 341° |
| 2026-05-06 17:21 | 47.31599 | 15.46869 | 9001 ft | 266 kts | 313° |
| 2026-05-06 17:21 | 47.32570 | 15.44769 | 8754 ft | 244 kts | 279° |
| 2026-05-06 17:22 | 47.32566 | 15.42351 | 8401 ft | 234 kts | 254° |
| 2026-05-06 17:22 | 47.32163 | 15.40024 | 8073 ft | 232 kts | 254° |
| 2026-05-06 17:22 | 47.31628 | 15.37822 | 7690 ft | 231 kts | 235° |
| 2026-05-06 17:22 | 47.30422 | 15.36262 | 7334 ft | 233 kts | 207° |
| 2026-05-06 17:23 | 47.28844 | 15.35763 | 7007 ft | 238 kts | 180° |
| 2026-05-06 17:23 | 47.27213 | 15.36172 | 6697 ft | 239 kts | 173° |
| 2026-05-06 17:23 | 47.25590 | 15.36638 | 6384 ft | 237 kts | 174° |
| 2026-05-06 17:23 | 47.24005 | 15.37081 | 6157 ft | 231 kts | 174° |
| 2026-05-06 17:24 | 47.22425 | 15.37518 | 5868 ft | 225 kts | 173° |
| 2026-05-06 17:24 | 47.20913 | 15.37938 | 5520 ft | 218 kts | 173° |
| 2026-05-06 17:24 | 47.19459 | 15.38342 | 5259 ft | 206 kts | 172° |
| 2026-05-06 17:24 | 47.18088 | 15.38720 | 4917 ft | 196 kts | 172° |
| 2026-05-06 17:25 | 47.16788 | 15.39079 | 4683 ft | 186 kts | 171° |
| 2026-05-06 17:25 | 47.15532 | 15.39427 | 4452 ft | 182 kts | 170° |
| 2026-05-06 17:25 | 47.14325 | 15.39757 | 4165 ft | 171 kts | 169° |
| 2026-05-06 17:25 | 47.13186 | 15.40071 | 3916 ft | 159 kts | 168° |
| 2026-05-06 17:26 | 47.12145 | 15.40361 | 3762 ft | 150 kts | 168° |
| 2026-05-06 17:26 | 47.11111 | 15.40657 | 3634 ft | 149 kts | 169° |
| 2026-05-06 17:26 | 47.10110 | 15.40940 | 3493 ft | 148 kts | 171° |
| 2026-05-06 17:26 | 47.09098 | 15.41224 | 3200 ft | 145 kts | 172° |
| 2026-05-06 17:27 | 47.08108 | 15.41495 | 2963 ft | 144 kts | 171° |
| 2026-05-06 17:27 | 47.07133 | 15.41765 | 2740 ft | 143 kts | 172° |
| 2026-05-06 17:27 | 47.06157 | 15.42026 | 2519 ft | 142 kts | 171° |
| 2026-05-06 17:27 | 47.05190 | 15.42286 | 2298 ft | 141 kts | 171° |
| 2026-05-06 17:28 | 47.04223 | 15.42559 | 2072 ft | 141 kts | 172° |
| 2026-05-06 17:28 | 47.03264 | 15.42814 | 1862 ft | 140 kts | 171° |
| 2026-05-06 17:28 | 47.02313 | 15.43085 | 1639 ft | 139 kts | 174° |
| 2026-05-06 17:28 | 47.01361 | 15.43332 | 1444 ft | 139 kts | 171° |
| 2026-05-06 17:29 | 47.00401 | 15.43617 | 1218 ft | 138 kts | 171° |
| 2026-05-06 17:29 | 46.99491 | 15.43846 | 1114 ft | 126 kts | 170° |
| 2026-05-06 17:29 | 46.98781 | 15.44048 | 1107 ft | 78 kts | 170° |
| 2026-05-06 17:29 | 46.98413 | 15.44152 | 1103 ft | 36 kts | 169° |
| 2026-05-06 17:30 | 46.98170 | 15.44216 | 1101 ft | 34 kts | 167° |
| 2026-05-06 17:30 | 46.97941 | 15.44286 | 1098 ft | 28 kts | 162° |
| 2026-05-06 17:30 | 46.97807 | 15.44349 | 1097 ft | 8 kts | 210° |
| 2026-05-06 17:30 | 46.97831 | 15.44308 | 1097 ft | 7 kts | 350° |
| 2026-05-06 17:31 | 46.97895 | 15.44293 | 1098 ft | 12 kts | 351° |
| 2026-05-06 17:31 | 46.98002 | 15.44266 | 1099 ft | 18 kts | 349° |
| 2026-05-06 17:31 | 46.98124 | 15.44233 | 1100 ft | 17 kts | 349° |
| 2026-05-06 17:31 | 46.98240 | 15.44201 | 1101 ft | 16 kts | 349° |
| 2026-05-06 17:32 | 46.98351 | 15.44171 | 1102 ft | 17 kts | 348° |
| 2026-05-06 17:32 | 46.98481 | 15.44135 | 1104 ft | 19 kts | 349° |
| 2026-05-06 17:32 | 46.98614 | 15.44101 | 1105 ft | 18 kts | 350° |
| 2026-05-06 17:32 | 46.98740 | 15.44064 | 1106 ft | 18 kts | 348° |
| 2026-05-06 17:33 | 46.98881 | 15.44026 | 1108 ft | 22 kts | 349° |
| 2026-05-06 17:33 | 46.99030 | 15.43986 | 1109 ft | 20 kts | 349° |
| 2026-05-06 17:33 | 46.99167 | 15.43947 | 1111 ft | 19 kts | 354° |
| 2026-05-06 17:33 | 46.99285 | 15.44017 | 1111 ft | 18 kts | 43° |
| 2026-05-06 17:34 | 46.99372 | 15.44148 | 1112 ft | 18 kts | 46° |
| 2026-05-06 17:34 | 46.99455 | 15.44253 | 1112 ft | 7 kts | 28° |
| 2026-05-06 17:34 | 46.99475 | 15.44272 | 1112 ft | 2 kts | 42° |
| 2026-05-06 17:34 | 46.99487 | 15.44293 | 1112 ft | 3 kts | 50° |
| 2026-05-06 17:35 | 46.99494 | 15.44323 | 1112 ft | 3 kts | 96° |
| 2026-05-06 17:35 | 46.99474 | 15.44350 | 1112 ft | 4 kts | 173° |
| 2026-05-06 17:35 | 46.99446 | 15.44317 | 1112 ft | 5 kts | 252° |
| 2026-05-06 17:36 | 46.99513 | 15.44253 | 1112 ft | 7 kts | 348° |
| 2026-05-06 17:36 | 46.99564 | 15.44237 | 1113 ft | 7 kts | 347° |
| 2026-05-06 17:36 | 46.99612 | 15.44236 | 1113 ft | 6 kts | 37° |
| 2026-05-06 17:36 | 46.99622 | 15.44275 | 1113 ft | 4 kts | 76° |
| 2026-05-06 17:37 | 46.99629 | 15.44300 | 1113 ft | 0 kts | 95° |
| 2026-05-06 17:37 | 46.99629 | 15.44301 | 1113 ft | 0 kts | 95° |
| 2026-05-06 17:37 | 46.99628 | 15.44303 | 1113 ft | 0 kts | 112° |
| 2026-05-06 17:37 | 46.99625 | 15.44305 | 1113 ft | 0 kts | 152° |
| 2026-05-06 17:38 | 46.99614 | 15.44309 | 1113 ft | 2 kts | 165° |
| 2026-05-06 17:38 | 46.99597 | 15.44320 | 1113 ft | 3 kts | 149° |
| 2026-05-06 17:38 | 46.99590 | 15.44327 | 1113 ft | 0 kts | 136° |
| 2026-05-06 17:38 | 46.99589 | 15.44328 | 1113 ft | 0 kts | 136° |